Time;durP1;ratioP1;P1;durP2;ratioP2;P2;SDS_P1;SDS_P2;PMS_P1;PMS_P2;Temp;Humidity;BMP_temperature;BMP_pressure;BME280_temperature;BME280_humidity;BME280_pressure;Samples;Min_cycle;Max_cycle;Signal;HPM_P1;HPM_P2
2023/06/20 00:00:53;;;;;;;14.77;12.70;;;;;;;21.70;73.24;100986.41;4962007;28;20054;-88
2023/06/20 00:03:18;;;;;;;15.70;12.93;;;;;;;21.68;72.41;100986.69;4993978;28;20037;-87
2023/06/20 00:05:44;;;;;;;17.67;13.00;;;;;;;21.66;72.94;100982.59;4977818;28;20022;-88
2023/06/20 00:08:10;;;;;;;20.17;13.30;;;;;;;21.63;72.59;100972.94;4994047;28;20037;-87
2023/06/20 00:10:35;;;;;;;18.87;12.60;;;;;;;21.65;73.54;100983.69;4994165;28;20045;-88
2023/06/20 00:13:01;;;;;;;16.95;12.40;;;;;;;21.63;73.16;100983.13;4977725;28;20483;-88
2023/06/20 00:15:26;;;;;;;16.43;12.13;;;;;;;21.62;73.45;100979.56;4977815;28;20031;-88
2023/06/20 00:17:53;;;;;;;18.13;11.63;;;;;;;21.55;73.63;100988.19;4993778;28;20036;-87
2023/06/20 00:20:19;;;;;;;14.95;11.82;;;;;;;21.50;74.05;100973.56;4994987;28;20030;-88
2023/06/20 00:22:44;;;;;;;14.77;11.75;;;;;;;21.48;73.93;100975.75;4993775;28;20607;-87
2023/06/20 00:25:10;;;;;;;16.97;11.77;;;;;;;21.48;74.29;100965.56;4993479;28;20054;-88
2023/06/20 00:27:35;;;;;;;15.88;11.43;;;;;;;21.49;73.74;100969.94;4977915;28;20125;-88
2023/06/20 00:30:01;;;;;;;19.30;12.00;;;;;;;21.53;73.55;100982.09;4994806;28;20031;-88
2023/06/20 00:32:26;;;;;;;15.67;11.93;;;;;;;21.53;73.34;100981.28;4993667;28;20164;-88
2023/06/20 00:34:52;;;;;;;16.00;11.17;;;;;;;21.48;73.06;100968.31;4994668;28;20041;-87
2023/06/20 00:37:17;;;;;;;15.15;11.48;;;;;;;21.50;73.48;100977.16;4977680;28;20386;-88
2023/06/20 00:39:43;;;;;;;15.23;10.87;;;;;;;21.44;73.71;100967.22;4993684;28;20117;-87
2023/06/20 00:42:23;;;;;;;15.97;11.60;;;;;;;21.51;73.34;100977.97;4993338;28;20359;-88
2023/06/20 00:44:49;;;;;;;17.42;12.13;;;;;;;21.46;74.36;100975.22;4993111;28;20022;-88
2023/06/20 00:47:17;;;;;;;19.98;12.32;;;;;;;21.45;74.37;100977.19;4993720;28;20034;-87
2023/06/20 00:49:47;;;;;;;17.23;11.90;;;;;;;21.41;74.13;100973.31;4993436;28;20531;-87
2023/06/20 00:52:24;;;;;;;16.17;12.40;;;;;;;21.42;73.33;100969.47;4994084;28;20081;-88
2023/06/20 00:54:50;;;;;;;18.23;12.15;;;;;;;21.41;73.87;100967.81;4993489;28;20390;-88
2023/06/20 00:57:20;;;;;;;16.67;12.25;;;;;;;21.34;73.62;100961.78;4994921;28;20030;-88
2023/06/20 00:59:46;;;;;;;16.50;12.18;;;;;;;21.41;73.85;100961.44;4994141;28;20120;-88
2023/06/20 01:02:14;;;;;;;16.00;12.03;;;;;;;21.40;73.78;100960.63;4994126;28;20038;-87
2023/06/20 01:04:41;;;;;;;17.55;12.50;;;;;;;21.36;73.59;100954.88;4994344;28;20037;-88
2023/06/20 01:07:27;;;;;;;16.75;11.50;;;;;;;21.37;72.36;100955.69;4993310;28;20026;-88
2023/06/20 01:09:57;;;;;;;15.63;11.90;;;;;;;21.34;73.73;100957.06;4993660;28;20049;-88
2023/06/20 01:12:35;;;;;;;16.00;12.10;;;;;;;21.27;73.37;100951.03;4993663;28;20415;-88
2023/06/20 01:15:26;;;;;;;15.97;11.00;;;;;;;21.32;72.80;100955.72;4994592;28;20064;-87
2023/06/20 01:18:02;;;;;;;16.83;11.10;;;;;;;21.32;73.41;100956.53;4994312;28;20025;-88
2023/06/20 01:20:43;;;;;;;15.85;11.95;;;;;;;21.33;74.09;100958.19;4993009;28;20022;-88
2023/06/20 01:23:09;;;;;;;16.67;11.98;;;;;;;21.33;73.72;100957.34;4994245;28;20022;-87
2023/06/20 01:25:56;;;;;;;22.27;12.57;;;;;;;21.34;72.92;100953.50;4992772;28;20454;-88
2023/06/20 01:28:31;;;;;;;18.15;11.63;;;;;;;21.29;73.66;100946.09;4993146;28;20125;-87
2023/06/20 01:31:07;;;;;;;14.80;11.20;;;;;;;21.32;73.83;100944.69;4993203;28;20088;-87
2023/06/20 01:33:38;;;;;;;15.47;11.63;;;;;;;21.26;73.67;100938.38;4995526;28;20042;-87
2023/06/20 01:36:06;;;;;;;16.80;12.32;;;;;;;21.25;73.32;100936.72;4998132;28;20033;-88
2023/06/20 01:38:33;;;;;;;17.75;12.43;;;;;;;21.27;73.73;100942.75;4996900;28;20033;-88
2023/06/20 01:41:00;;;;;;;15.38;12.25;;;;;;;21.24;74.12;100934.25;4996631;28;20053;-88
2023/06/20 01:43:29;;;;;;;16.20;11.68;;;;;;;21.26;73.64;100935.63;4996438;28;20359;-88
2023/06/20 01:45:56;;;;;;;16.33;11.73;;;;;;;21.17;73.61;100923.50;4997890;28;20077;-88
2023/06/20 01:48:23;;;;;;;18.55;12.70;;;;;;;21.22;73.90;100930.97;4997728;28;20026;-88
2023/06/20 01:50:52;;;;;;;17.50;12.25;;;;;;;21.16;73.83;100914.41;4996736;28;20034;-88
2023/06/20 01:53:20;;;;;;;16.02;12.65;;;;;;;21.13;73.05;100919.69;4996389;28;20034;-88
2023/06/20 01:55:48;;;;;;;14.00;11.82;;;;;;;21.14;72.91;100916.66;4997639;28;20038;-88
2023/06/20 01:58:15;;;;;;;16.40;12.07;;;;;;;21.19;72.79;100924.88;4996329;28;20030;-88
2023/06/20 02:00:41;;;;;;;15.80;11.63;;;;;;;21.12;73.20;100915.28;4980849;28;20097;-88
2023/06/20 02:03:09;;;;;;;17.13;12.52;;;;;;;21.11;73.09;100916.38;4996212;28;20034;-88
2023/06/20 02:05:37;;;;;;;14.75;11.40;;;;;;;21.11;73.19;100903.44;4997179;28;20038;-88
2023/06/20 02:08:04;;;;;;;16.33;12.03;;;;;;;21.07;72.80;100907.88;4995772;28;20113;-88
2023/06/20 02:10:30;;;;;;;15.65;12.30;;;;;;;21.12;73.06;100918.03;4997732;28;20489;-88
2023/06/20 02:12:56;;;;;;;15.73;12.38;;;;;;;21.06;72.58;100908.16;4996359;28;20030;-88
2023/06/20 02:15:24;;;;;;;15.07;11.43;;;;;;;21.11;72.65;100905.34;4996344;28;20073;-88
2023/06/20 02:17:49;;;;;;;14.18;11.60;;;;;;;21.06;72.31;100903.44;4997836;28;20038;-88
2023/06/20 02:20:15;;;;;;;15.98;12.20;;;;;;;21.14;72.10;100913.06;4997192;28;20052;-88
2023/06/20 02:22:46;;;;;;;16.73;12.40;;;;;;;21.07;72.19;100905.09;4996140;28;20036;-88
2023/06/20 02:25:19;;;;;;;17.23;12.98;;;;;;;21.09;72.90;100910.34;4995955;28;20490;-87
2023/06/20 02:27:47;;;;;;;19.90;12.88;;;;;;;21.05;72.85;100906.50;4996859;28;20109;-88
2023/06/20 02:30:15;;;;;;;19.80;11.63;;;;;;;21.04;73.52;100916.72;4995986;28;20034;-87
2023/06/20 02:32:42;;;;;;;18.27;13.05;;;;;;;21.06;74.45;100922.75;4980074;28;20058;-88
2023/06/20 02:35:10;;;;;;;15.40;12.37;;;;;;;20.99;73.02;100920.31;4996014;28;20121;-88
2023/06/20 02:37:39;;;;;;;16.08;12.60;;;;;;;20.99;73.46;100925.00;4995667;28;20494;-88
2023/06/20 02:40:09;;;;;;;19.65;12.43;;;;;;;21.00;73.30;100930.22;4996190;28;20092;-87
2023/06/20 02:42:34;;;;;;;17.88;12.25;;;;;;;20.92;73.40;100906.00;4979144;28;20030;-89
2023/06/20 02:45:00;;;;;;;16.13;11.57;;;;;;;20.93;72.78;100909.59;4995296;28;20376;-88
2023/06/20 02:47:42;;;;;;;16.67;11.32;;;;;;;20.96;72.40;100926.38;4995362;28;20038;-87
2023/06/20 02:50:20;;;;;;;16.75;11.15;;;;;;;20.90;72.37;100899.13;4996927;28;20099;-88
2023/06/20 02:53:06;;;;;;;15.45;10.90;;;;;;;20.92;71.99;100917.03;4995397;28;20026;-87
2023/06/20 02:55:55;;;;;;;15.40;11.30;;;;;;;20.87;72.01;100917.06;4995565;28;20418;-88
2023/06/20 02:58:24;;;;;;;16.13;10.97;;;;;;;20.80;72.01;100913.78;4987316;28;20100;-88
2023/06/20 03:00:52;;;;;;;15.07;10.75;;;;;;;20.75;72.76;100911.06;4979611;28;20050;-88
2023/06/20 03:03:29;;;;;;;15.50;11.00;;;;;;;20.76;72.17;100916.28;4996431;28;20494;-88
2023/06/20 03:05:57;;;;;;;14.00;10.82;;;;;;;20.69;71.87;100915.75;4996999;28;20030;-87
2023/06/20 03:08:26;;;;;;;12.65;10.30;;;;;;;20.68;71.88;100905.84;4996316;28;20034;-88
2023/06/20 03:10:52;;;;;;;18.17;10.80;;;;;;;20.54;72.57;100896.50;4994983;28;20088;-88
2023/06/20 03:13:17;;;;;;;16.30;11.20;;;;;;;20.49;72.11;100895.41;4995979;28;20041;-88
2023/06/20 03:15:43;;;;;;;14.13;10.70;;;;;;;20.45;72.71;100888.00;4994922;28;20034;-88
2023/06/20 03:18:08;;;;;;;16.70;11.02;;;;;;;20.44;72.73;100889.91;4995084;28;20038;-87
2023/06/20 03:20:34;;;;;;;16.03;11.10;;;;;;;20.38;72.45;100896.53;4995674;28;20037;-87
2023/06/20 03:23:00;;;;;;;13.32;10.50;;;;;;;20.38;73.08;100898.47;4994754;28;20430;-88
2023/06/20 03:25:27;;;;;;;21.80;11.07;;;;;;;20.29;73.30;100898.22;4977594;28;20137;-88
2023/06/20 03:27:53;;;;;;;14.65;10.77;;;;;;;20.28;73.21;100905.66;4994053;28;20081;-88
2023/06/20 03:30:18;;;;;;;13.50;10.10;;;;;;;20.19;73.97;100907.34;4993649;28;20085;-87
2023/06/20 03:32:44;;;;;;;14.82;10.95;;;;;;;20.21;74.32;100902.38;4977237;28;20022;-88
2023/06/20 03:35:09;;;;;;;15.73;10.13;;;;;;;20.22;74.30;100915.03;4993615;28;20022;-88
2023/06/20 03:37:35;;;;;;;15.60;11.07;;;;;;;20.11;74.56;100903.22;4993595;28;20039;-87
2023/06/20 03:40:00;;;;;;;14.33;10.33;;;;;;;20.13;74.04;100917.53;4993737;28;20030;-88
2023/06/20 03:42:26;;;;;;;15.10;10.43;;;;;;;20.07;74.02;100920.59;4993199;28;20038;-87
2023/06/20 03:44:51;;;;;;;13.80;10.93;;;;;;;20.05;75.12;100929.13;4993228;28;20070;-87
2023/06/20 03:47:17;;;;;;;13.63;11.00;;;;;;;19.93;75.74;100926.66;4977955;28;20041;-87
2023/06/20 03:49:42;;;;;;;16.83;11.77;;;;;;;19.90;75.63;100929.13;4993060;28;20458;-88
2023/06/20 03:52:08;;;;;;;14.67;12.17;;;;;;;19.92;75.60;100946.22;4977200;28;20038;-88
2023/06/20 03:54:37;;;;;;;15.60;11.87;;;;;;;19.92;76.20;100947.03;4993565;28;20077;-87
2023/06/20 03:57:03;;;;;;;14.82;12.00;;;;;;;19.92;77.97;100951.72;4992705;28;20037;-88
2023/06/20 03:59:28;;;;;;;16.70;11.10;;;;;;;19.92;78.19;100949.78;4977655;28;20046;-88
2023/06/20 04:01:53;;;;;;;17.00;11.43;;;;;;;19.95;78.25;100938.22;4993492;28;20277;-87
2023/06/20 04:04:19;;;;;;;17.43;10.70;;;;;;;19.97;77.62;100946.19;4994406;28;20038;-88
2023/06/20 04:06:49;;;;;;;20.20;11.57;;;;;;;19.97;76.27;100948.94;4993278;28;20124;-87
2023/06/20 04:09:18;;;;;;;15.43;11.13;;;;;;;20.06;76.46;100949.22;4994905;28;20058;-88
2023/06/20 04:11:44;;;;;;;14.65;10.80;;;;;;;20.15;76.24;100942.88;4994354;28;20113;-88
2023/06/20 04:14:09;;;;;;;16.88;10.90;;;;;;;20.10;76.61;100931.03;4993050;28;20034;-88
2023/06/20 04:16:36;;;;;;;15.77;10.50;;;;;;;20.17;76.89;100928.84;4992956;28;20045;-88
2023/06/20 04:19:02;;;;;;;16.27;11.60;;;;;;;20.23;76.05;100935.16;4992605;28;20062;-88
2023/06/20 04:21:31;;;;;;;15.37;11.17;;;;;;;20.26;76.29;100934.59;4992990;28;20042;-88
2023/06/20 04:23:56;;;;;;;15.30;11.50;;;;;;;20.37;76.33;100940.91;4961456;28;20031;-89
2023/06/20 04:26:22;;;;;;;15.20;11.83;;;;;;;20.39;76.35;100913.91;4937709;28;1145132;-88
2023/06/20 04:28:47;;;;;;;13.67;11.20;;;;;;;20.54;76.74;100916.63;4993718;28;20297;-88
2023/06/20 04:31:13;;;;;;;17.07;12.20;;;;;;;20.54;77.26;100916.63;4993813;28;20038;-88
2023/06/20 04:33:43;;;;;;;14.37;12.17;;;;;;;20.63;75.74;100914.09;4977893;28;20030;-88
2023/06/20 04:36:15;;;;;;;18.83;11.73;;;;;;;20.71;75.14;100918.22;4993923;28;20066;-87
2023/06/20 04:38:41;;;;;;;19.27;12.73;;;;;;;20.71;75.75;100913.53;4994515;28;20066;-88
2023/06/20 04:41:07;;;;;;;17.70;12.98;;;;;;;20.77;77.18;100925.38;4994882;28;20117;-88
2023/06/20 04:43:33;;;;;;;18.10;12.00;;;;;;;20.79;75.27;100910.19;4994715;28;20031;-87
2023/06/20 04:46:00;;;;;;;17.50;11.98;;;;;;;20.96;75.44;100914.53;4993605;28;20445;-87
2023/06/20 04:48:30;;;;;;;16.00;11.70;;;;;;;20.97;74.77;100899.66;4977302;28;20061;-88
2023/06/20 04:50:56;;;;;;;18.35;12.13;;;;;;;21.07;73.98;100910.63;4993573;28;20109;-87
2023/06/20 04:53:26;;;;;;;14.65;12.38;;;;;;;21.03;73.28;100904.84;4993265;28;20430;-87
2023/06/20 04:55:52;;;;;;;19.10;12.52;;;;;;;21.10;72.87;100903.72;4977112;28;20038;-87
2023/06/20 04:58:17;;;;;;;16.33;12.07;;;;;;;21.13;73.04;100906.72;4992966;28;20080;-87
2023/06/20 05:00:43;;;;;;;17.20;12.43;;;;;;;21.18;73.03;100909.44;4993354;28;20030;-88
2023/06/20 05:03:08;;;;;;;14.80;11.80;;;;;;;21.13;72.93;100894.88;4994075;28;20089;-89
2023/06/20 05:05:34;;;;;;;16.73;11.40;;;;;;;21.26;73.47;100908.03;4976873;28;20042;-87
2023/06/20 05:07:59;;;;;;;15.47;9.90;;;;;;;21.43;73.43;100899.34;4975458;28;20030;-86
2023/06/20 05:10:25;;;;;;;13.02;9.52;;;;;;;21.57;73.06;100893.19;4977098;28;20031;-86
2023/06/20 05:12:50;;;;;;;12.70;9.13;;;;;;;21.76;73.00;100885.88;4992968;28;20030;-86
2023/06/20 05:15:16;;;;;;;10.23;8.40;;;;;;;21.85;72.70;100883.28;4993932;28;20542;-85
2023/06/20 05:17:41;;;;;;;10.52;7.75;;;;;;;21.93;73.08;100865.28;4977350;28;20041;-87
2023/06/20 05:20:08;;;;;;;12.67;8.00;;;;;;;22.17;73.23;100870.81;4993174;28;20034;-87
2023/06/20 05:22:34;;;;;;;13.55;7.15;;;;;;;22.37;72.52;100875.34;4992764;28;20026;-87
2023/06/20 05:25:02;;;;;;;7.90;6.73;;;;;;;22.53;72.48;100862.13;4992621;28;20053;-90
2023/06/20 05:27:30;;;;;;;8.35;7.07;;;;;;;22.76;72.62;100874.28;4977372;28;20089;-88
2023/06/20 05:29:55;;;;;;;8.68;5.90;;;;;;;22.92;71.51;100867.41;4961479;28;20054;-87
2023/06/20 05:32:20;;;;;;;6.73;5.03;;;;;;;22.85;71.77;100857.84;4993065;28;20050;-90
2023/06/20 05:34:46;;;;;;;6.40;5.17;;;;;;;22.92;71.95;100855.53;4992815;28;20034;-89
2023/06/20 05:37:11;;;;;;;6.07;5.40;;;;;;;22.97;72.01;100857.41;4992456;28;20034;-88
2023/06/20 05:39:37;;;;;;;5.72;5.13;;;;;;;23.05;71.96;100859.50;4992640;28;20054;-88
2023/06/20 05:42:02;;;;;;;7.10;5.03;;;;;;;23.11;71.82;100866.63;4992430;28;20042;-88
2023/06/20 05:44:28;;;;;;;5.43;4.70;;;;;;;23.09;71.48;100853.06;4992720;28;20026;-88
2023/06/20 05:46:53;;;;;;;5.70;5.20;;;;;;;23.03;71.98;100864.50;4976410;28;20335;-85
2023/06/20 05:49:21;;;;;;;6.93;5.35;;;;;;;22.90;72.79;100853.06;4993476;28;20065;-88
2023/06/20 05:51:47;;;;;;;5.23;4.60;;;;;;;22.93;72.13;100871.00;4994081;28;20097;-88
2023/06/20 05:54:15;;;;;;;8.43;5.15;;;;;;;22.87;72.18;100870.25;4976628;28;20149;-88
2023/06/20 05:56:43;;;;;;;7.05;4.97;;;;;;;22.91;72.56;100881.53;4994345;28;20034;-88
2023/06/20 05:59:09;;;;;;;5.75;5.07;;;;;;;22.94;72.16;100878.16;4994406;28;20039;-87
2023/06/20 06:01:34;;;;;;;7.77;5.50;;;;;;;22.87;73.70;100872.19;4993448;28;20073;-92
2023/06/20 06:04:00;;;;;;;7.90;5.33;;;;;;;22.87;74.37;100888.78;4977039;28;20037;-88
2023/06/20 06:06:25;;;;;;;11.25;5.38;;;;;;;22.79;73.82;100887.50;4960624;28;20065;-88
2023/06/20 06:08:51;;;;;;;7.03;5.40;;;;;;;22.64;74.04;100882.19;4992297;28;20486;-89
2023/06/20 06:11:17;;;;;;;6.23;5.30;;;;;;;22.59;75.24;100889.41;4975973;28;20038;-90
2023/06/20 06:13:45;;;;;;;7.25;5.40;;;;;;;22.55;75.62;100882.84;4993449;28;20034;-91
2023/06/20 06:16:10;;;;;;;8.70;4.95;;;;;;;22.54;75.57;100889.50;4993525;28;20034;-87
2023/06/20 06:18:38;;;;;;;6.37;4.80;;;;;;;22.51;76.39;100884.53;4992599;28;20484;-88
2023/06/20 06:21:04;;;;;;;5.80;4.60;;;;;;;22.50;75.92;100880.16;4995636;28;20117;-88
2023/06/20 06:23:29;;;;;;;6.50;5.10;;;;;;;22.52;75.98;100877.09;4979160;28;20122;-89
2023/06/20 06:25:55;;;;;;;6.73;5.50;;;;;;;22.63;76.19;100884.13;4995000;28;20054;-87
2023/06/20 06:28:23;;;;;;;9.10;5.63;;;;;;;22.52;76.02;100875.13;4995529;28;20038;-87
2023/06/20 06:30:49;;;;;;;8.10;5.77;;;;;;;22.47;76.46;100886.25;4996513;28;20026;-88
2023/06/20 06:33:15;;;;;;;6.35;5.50;;;;;;;22.47;77.12;100882.66;4979811;28;20558;-89
2023/06/20 06:35:40;;;;;;;6.83;5.67;;;;;;;22.50;76.92;100884.81;4995426;28;20533;-91
2023/06/20 06:38:06;;;;;;;7.30;6.07;;;;;;;22.48;77.51;100885.13;4995616;28;20418;-93
2023/06/20 06:40:32;;;;;;;8.53;6.47;;;;;;;22.49;77.40;100895.06;4995827;28;20026;-90
2023/06/20 06:42:58;;;;;;;9.23;6.25;;;;;;;22.46;77.76;100878.28;4997380;28;20038;-93
2023/06/20 06:45:24;;;;;;;9.15;5.85;;;;;;;22.59;77.51;100886.66;4995727;28;20443;-86
2023/06/20 06:47:49;;;;;;;7.27;6.03;;;;;;;22.65;77.39;100886.56;4994879;28;20080;-85
2023/06/20 06:50:15;;;;;;;8.00;5.40;;;;;;;22.64;77.67;100880.25;4996463;28;20187;-85
2023/06/20 06:52:41;;;;;;;8.27;5.47;;;;;;;22.75;77.16;100875.38;4979119;28;20030;-85
2023/06/20 06:55:07;;;;;;;6.72;5.82;;;;;;;22.74;76.48;100879.28;4995137;28;20121;-85
2023/06/20 06:57:35;;;;;;;10.80;5.78;;;;;;;22.78;77.09;100883.13;4996289;28;20169;-85
2023/06/20 07:00:00;;;;;;;8.23;6.10;;;;;;;22.76;76.62;100888.94;4994810;28;20049;-84
2023/06/20 07:02:27;;;;;;;6.78;5.18;;;;;;;22.81;76.84;100892.75;4995505;28;20038;-85
2023/06/20 07:04:53;;;;;;;7.70;6.43;;;;;;;22.83;76.82;100887.75;4963241;28;20375;-87
2023/06/20 07:07:18;;;;;;;7.35;5.80;;;;;;;22.92;76.27;100877.66;4996682;28;20171;-87
2023/06/20 07:09:44;;;;;;;10.87;6.13;;;;;;;23.02;76.10;100882.25;4995722;28;20026;-87
2023/06/20 07:12:09;;;;;;;6.77;5.77;;;;;;;23.11;75.39;100883.22;4995414;28;20318;-88
2023/06/20 07:14:35;;;;;;;7.47;6.13;;;;;;;23.19;75.18;100874.25;4978741;28;20129;-87
2023/06/20 07:17:00;;;;;;;11.43;7.37;;;;;;;23.26;74.60;100882.19;4978760;28;20030;-87
2023/06/20 07:19:26;;;;;;;9.38;6.50;;;;;;;23.29;74.41;100865.78;4995096;28;20026;-87
2023/06/20 07:21:51;;;;;;;9.63;6.83;;;;;;;23.37;74.12;100866.22;4979308;28;20244;-88
2023/06/20 07:24:16;;;;;;;9.53;7.27;;;;;;;23.48;74.05;100865.75;4994497;28;20034;-87
2023/06/20 07:26:42;;;;;;;10.40;7.07;;;;;;;23.50;73.39;100851.59;4996733;28;20051;-88
2023/06/20 07:29:07;;;;;;;8.93;6.43;;;;;;;23.62;73.60;100867.75;4994674;28;20032;-87
2023/06/20 07:31:33;;;;;;;6.10;5.17;;;;;;;23.70;72.68;100863.47;4978016;28;20502;-87
2023/06/20 07:33:58;;;;;;;8.67;6.13;;;;;;;23.74;72.63;100854.25;4978408;28;20026;-87
2023/06/20 07:36:23;;;;;;;7.33;5.07;;;;;;;23.82;71.95;100850.75;4978511;28;20463;-87
2023/06/20 07:38:49;;;;;;;8.63;4.97;;;;;;;23.88;71.71;100854.28;4994167;28;20038;-88
2023/06/20 07:41:14;;;;;;;9.38;5.35;;;;;;;23.94;71.62;100843.94;4978189;28;20038;-88
2023/06/20 07:43:39;;;;;;;9.27;5.70;;;;;;;24.01;71.36;100854.66;4962042;28;20026;-87
2023/06/20 07:46:05;;;;;;;8.70;5.87;;;;;;;24.04;70.94;100854.03;4978047;28;20054;-87
2023/06/20 07:48:30;;;;;;;8.67;6.30;;;;;;;24.11;70.83;100860.81;4994982;28;20449;-88
2023/06/20 07:50:57;;;;;;;8.30;5.23;;;;;;;24.19;71.13;100866.75;4993794;28;20047;-87
2023/06/20 07:53:23;;;;;;;11.10;5.72;;;;;;;24.27;69.91;100877.97;4994178;28;20084;-87
2023/06/20 07:55:48;;;;;;;8.73;5.32;;;;;;;24.35;69.15;100870.88;4977753;28;20124;-88
2023/06/20 07:58:14;;;;;;;6.93;5.07;;;;;;;24.44;69.66;100873.75;4995375;28;20034;-88
2023/06/20 08:00:40;;;;;;;8.43;5.05;;;;;;;24.56;68.81;100885.13;4978174;28;20068;-87
2023/06/20 08:03:07;;;;;;;7.75;5.70;;;;;;;24.60;68.51;100866.78;4995250;28;20238;-88
2023/06/20 08:05:32;;;;;;;9.10;5.23;;;;;;;24.66;67.95;100864.72;4978140;28;20062;-87
2023/06/20 08:07:58;;;;;;;11.13;5.90;;;;;;;24.74;68.65;100858.41;4961728;28;20042;-87
2023/06/20 08:10:23;;;;;;;10.10;5.77;;;;;;;24.79;68.41;100857.50;4995356;28;20041;-87
2023/06/20 08:12:48;;;;;;;8.33;5.70;;;;;;;24.90;68.18;100867.22;4994385;28;20451;-87
2023/06/20 08:15:14;;;;;;;6.47;5.70;;;;;;;24.92;67.97;100856.66;4994055;28;20048;-87
2023/06/20 08:17:39;;;;;;;7.20;6.10;;;;;;;24.96;67.56;100863.19;4994742;28;20039;-87
2023/06/20 08:20:06;;;;;;;6.43;5.80;;;;;;;25.02;67.29;100863.91;4995196;28;20042;-87
2023/06/20 08:22:33;;;;;;;7.53;5.18;;;;;;;25.07;67.75;100849.94;4993696;28;20038;-87
2023/06/20 08:24:58;;;;;;;9.82;5.53;;;;;;;25.19;67.19;100852.16;4993273;28;20064;-88
2023/06/20 08:27:24;;;;;;;6.80;5.53;;;;;;;25.32;66.47;100856.00;4993853;28;20432;-88
2023/06/20 08:29:49;;;;;;;6.30;4.73;;;;;;;25.35;65.21;100847.09;4993551;28;20034;-87
2023/06/20 08:32:14;;;;;;;4.30;3.90;;;;;;;25.51;64.91;100858.59;4993434;28;20030;-87
2023/06/20 08:34:40;;;;;;;5.30;4.13;;;;;;;25.54;64.01;100849.63;4993179;28;20092;-87
2023/06/20 08:37:08;;;;;;;5.43;4.67;;;;;;;25.68;64.01;100866.25;4961444;28;20485;-87
2023/06/20 08:39:34;;;;;;;5.93;4.80;;;;;;;25.75;64.12;100861.06;4977488;28;20030;-88
2023/06/20 08:41:59;;;;;;;5.05;4.55;;;;;;;25.85;63.67;100859.94;4993009;28;20037;-88
2023/06/20 08:44:27;;;;;;;9.37;4.57;;;;;;;25.90;63.10;100846.75;4976840;28;20116;-88
2023/06/20 08:46:57;;;;;;;5.88;4.20;;;;;;;26.07;62.35;100856.31;4993252;28;20022;-88
2023/06/20 08:49:28;;;;;;;6.88;5.07;;;;;;;26.09;61.19;100852.09;4993708;28;20034;-87
2023/06/20 08:51:58;;;;;;;4.40;4.00;;;;;;;26.16;61.78;100859.16;4993290;28;20092;-88
2023/06/20 08:54:25;;;;;;;7.10;4.30;;;;;;;26.22;61.16;100855.91;4994744;28;20054;-88
2023/06/20 08:56:51;;;;;;;6.78;4.10;;;;;;;26.42;61.34;100850.91;4993013;28;20026;-87
2023/06/20 08:59:22;;;;;;;4.83;4.17;;;;;;;26.63;61.14;100839.16;4977703;28;20081;-88
2023/06/20 09:01:48;;;;;;;5.80;4.25;;;;;;;26.56;60.66;100836.84;4993379;28;20034;-88
2023/06/20 09:04:14;;;;;;;6.43;4.03;;;;;;;26.45;60.29;100833.56;4993468;28;20040;-89
2023/06/20 09:06:39;;;;;;;4.45;4.05;;;;;;;26.51;60.52;100842.56;4992934;28;20387;-89
2023/06/20 09:09:13;;;;;;;6.73;4.07;;;;;;;26.40;60.50;100837.31;4992883;28;20030;-88
2023/06/20 09:11:38;;;;;;;6.25;4.50;;;;;;;26.50;60.08;100838.16;4993972;28;20061;-88
2023/06/20 09:14:09;;;;;;;6.67;4.30;;;;;;;26.53;60.56;100837.50;4994218;28;20062;-88
2023/06/20 09:16:34;;;;;;;5.55;4.18;;;;;;;26.59;60.27;100847.34;4993018;28;20033;-88
2023/06/20 09:19:03;;;;;;;5.07;4.53;;;;;;;26.68;60.41;100845.44;4992913;28;20117;-88
2023/06/20 09:21:29;;;;;;;4.82;4.38;;;;;;;26.89;59.74;100851.19;4994141;28;20030;-88
2023/06/20 09:24:05;;;;;;;6.97;4.00;;;;;;;27.09;59.62;100854.44;4992879;28;20038;-88
2023/06/20 09:26:31;;;;;;;6.20;4.43;;;;;;;27.17;58.71;100862.00;4992622;28;20075;-88
2023/06/20 09:29:17;;;;;;;4.75;4.20;;;;;;;27.04;57.99;100858.22;4992769;28;20390;-88
2023/06/20 09:31:50;;;;;;;5.63;4.40;;;;;;;27.18;57.88;100868.38;4993066;28;20034;-88
2023/06/20 09:34:20;;;;;;;5.15;4.60;;;;;;;27.36;57.30;100858.06;4993558;28;20065;-89
2023/06/20 09:36:46;;;;;;;7.03;4.53;;;;;;;27.03;57.43;100852.97;4993167;28;20042;-88
2023/06/20 09:39:17;;;;;;;6.53;4.25;;;;;;;26.88;58.82;100857.06;4993240;28;20051;-88
2023/06/20 09:41:55;;;;;;;5.65;4.15;;;;;;;26.83;58.18;100863.63;4994568;28;20462;-88
2023/06/20 09:44:20;;;;;;;5.80;4.87;;;;;;;26.82;57.86;100856.41;4993527;28;20034;-88
2023/06/20 09:46:47;;;;;;;6.80;4.40;;;;;;;26.88;58.34;100854.28;4976555;28;20030;-87
2023/06/20 09:49:15;;;;;;;9.32;4.53;;;;;;;26.94;58.12;100859.38;4994098;28;20030;-88
2023/06/20 09:51:50;;;;;;;8.63;4.33;;;;;;;27.00;58.14;100862.00;4992795;28;20030;-88
2023/06/20 09:54:31;;;;;;;7.50;4.50;;;;;;;26.95;57.43;100855.44;4994326;28;20065;-89
2023/06/20 09:57:07;;;;;;;6.00;3.92;;;;;;;27.01;57.01;100852.50;4997786;28;20092;-89
2023/06/20 09:59:38;;;;;;;8.23;3.45;;;;;;;27.15;55.88;100850.38;4997445;28;20062;-91
2023/06/20 10:02:07;;;;;;;3.50;3.17;;;;;;;27.19;54.80;100853.31;4997497;28;20157;-92
2023/06/20 10:04:42;;;;;;;3.50;3.20;;;;;;;27.34;54.52;100846.44;4996341;28;20038;-92
2023/06/20 10:07:14;;;;;;;4.85;3.58;;;;;;;27.59;53.72;100848.41;4996713;28;20027;-92
2023/06/20 10:09:41;;;;;;;5.78;3.90;;;;;;;27.51;54.16;100849.22;4996427;28;20023;-91
2023/06/20 10:12:11;;;;;;;5.97;3.58;;;;;;;27.55;55.44;100849.34;4996116;28;20471;-91
2023/06/20 10:14:38;;;;;;;4.38;3.58;;;;;;;27.56;53.97;100837.88;4996438;28;20034;-90
2023/06/20 10:17:08;;;;;;;8.87;5.60;;;;;;;27.69;54.62;100841.63;4996018;28;20489;-91
2023/06/20 10:19:48;;;;;;;4.07;3.65;;;;;;;27.98;53.78;100826.97;4997030;28;20077;-91
2023/06/20 10:22:14;;;;;;;4.70;3.92;;;;;;;28.06;52.69;100819.72;4995968;28;20064;-92
2023/06/20 10:24:45;;;;;;;6.07;3.47;;;;;;;28.00;52.18;100819.06;4995720;28;20117;-92
2023/06/20 10:27:23;;;;;;;3.70;2.90;;;;;;;28.15;52.52;100826.09;4997152;28;20096;-92
2023/06/20 10:29:53;;;;;;;4.30;3.00;;;;;;;28.18;51.83;100808.69;4997661;28;20093;-89
2023/06/20 10:32:19;;;;;;;3.38;2.97;;;;;;;28.14;49.49;100809.66;4979594;28;20030;-89
2023/06/20 10:34:44;;;;;;;5.80;2.80;;;;;;;28.19;51.31;100803.91;4979693;28;20057;-87
2023/06/20 10:37:19;;;;;;;3.80;2.53;;;;;;;28.41;50.97;100796.41;4979201;28;20276;-87
2023/06/20 10:39:54;;;;;;;4.18;2.60;;;;;;;28.75;48.70;100802.94;4995484;28;20081;-87
2023/06/20 10:42:41;;;;;;;3.43;2.37;;;;;;;28.85;47.99;100796.94;4997062;28;20030;-87
2023/06/20 10:45:18;;;;;;;4.35;2.25;;;;;;;28.71;47.96;100800.00;4996701;28;20040;-86
2023/06/20 10:47:43;;;;;;;7.53;2.80;;;;;;;28.70;47.49;100799.19;4996368;28;20053;-87
2023/06/20 10:50:13;;;;;;;3.17;2.47;;;;;;;28.83;47.13;100802.88;4963091;28;20435;-87
2023/06/20 10:52:40;;;;;;;3.13;2.47;;;;;;;29.03;46.07;100800.41;4994945;28;20471;-87
2023/06/20 10:55:28;;;;;;;3.77;2.70;;;;;;;29.36;46.73;100796.81;4995293;28;20046;-87
2023/06/20 10:57:55;;;;;;;4.78;2.70;;;;;;;29.63;45.72;100787.00;4996486;28;20031;-87
2023/06/20 11:00:22;;;;;;;5.28;2.60;;;;;;;29.95;44.04;100789.25;4995240;28;20126;-87
2023/06/20 11:02:53;;;;;;;4.50;2.80;;;;;;;29.96;43.97;100774.13;4996624;28;20093;-87
2023/06/20 11:05:27;;;;;;;3.13;2.53;;;;;;;30.23;44.29;100770.59;4995097;28;20037;-87
2023/06/20 11:07:58;;;;;;;4.43;2.70;;;;;;;30.63;42.83;100765.41;4995436;28;20418;-87
2023/06/20 11:10:32;;;;;;;2.72;2.45;;;;;;;31.22;42.04;100770.31;4994642;28;20104;-87
2023/06/20 11:13:02;;;;;;;3.65;2.47;;;;;;;30.80;39.02;100767.94;4995121;28;20034;-87
2023/06/20 11:15:35;;;;;;;4.18;2.70;;;;;;;30.72;39.83;100768.88;4995074;28;20034;-87
2023/06/20 11:18:04;;;;;;;4.15;2.78;;;;;;;31.25;39.84;100764.00;4995130;28;20077;-88
2023/06/20 11:20:36;;;;;;;3.47;3.03;;;;;;;31.88;40.11;100756.03;4996119;28;20030;-89